sensor_id;sensor_type;location;lat;lon;timestamp;pressure;altitude;pressure_sealevel;temperature;humidity
37450;BME280;23309;52.582;13.406;2022-07-23T00:01:18;101213.44;;;27.19;39.39
37450;BME280;23309;52.582;13.406;2022-07-23T00:03:44;101205.44;;;27.17;39.13
37450;BME280;23309;52.582;13.406;2022-07-23T00:06:10;101202.06;;;27.15;39.67
37450;BME280;23309;52.582;13.406;2022-07-23T00:08:36;101203.31;;;27.19;39.40
37450;BME280;23309;52.582;13.406;2022-07-23T00:11:03;101182.50;;;27.12;39.72
37450;BME280;23309;52.582;13.406;2022-07-23T00:13:32;101193.00;;;27.15;39.51
37450;BME280;23309;52.582;13.406;2022-07-23T00:15:58;101192.25;;;27.08;39.69
37450;BME280;23309;52.582;13.406;2022-07-23T00:18:24;101179.00;;;27.05;39.39
37450;BME280;23309;52.582;13.406;2022-07-23T00:20:51;101187.72;;;27.02;39.39
37450;BME280;23309;52.582;13.406;2022-07-23T00:23:17;101185.88;;;26.96;39.36
37450;BME280;23309;52.582;13.406;2022-07-23T00:25:43;101185.63;;;26.97;39.57
37450;BME280;23309;52.582;13.406;2022-07-23T00:28:09;101184.56;;;26.98;39.56
37450;BME280;23309;52.582;13.406;2022-07-23T00:30:38;101177.19;;;26.99;39.22
37450;BME280;23309;52.582;13.406;2022-07-23T00:33:07;101169.09;;;27.04;39.45
37450;BME280;23309;52.582;13.406;2022-07-23T00:35:35;101180.28;;;27.02;39.37
37450;BME280;23309;52.582;13.406;2022-07-23T00:38:03;101181.38;;;27.01;39.29
37450;BME280;23309;52.582;13.406;2022-07-23T00:40:30;101176.97;;;27.00;39.69
37450;BME280;23309;52.582;13.406;2022-07-23T00:42:57;101171.69;;;26.99;39.48
37450;BME280;23309;52.582;13.406;2022-07-23T00:45:23;101183.03;;;27.02;39.32
37450;BME280;23309;52.582;13.406;2022-07-23T00:47:52;101175.44;;;27.04;39.26
37450;BME280;23309;52.582;13.406;2022-07-23T00:50:18;101178.84;;;27.00;39.56
37450;BME280;23309;52.582;13.406;2022-07-23T00:52:45;101185.09;;;27.07;39.27
37450;BME280;23309;52.582;13.406;2022-07-23T00:55:12;101173.06;;;27.08;39.25
37450;BME280;23309;52.582;13.406;2022-07-23T00:57:40;101186.09;;;27.12;39.02
37450;BME280;23309;52.582;13.406;2022-07-23T01:00:11;101198.25;;;27.16;38.99
37450;BME280;23309;52.582;13.406;2022-07-23T01:02:39;101197.44;;;27.16;39.02
37450;BME280;23309;52.582;13.406;2022-07-23T01:05:09;101196.56;;;27.15;38.82
37450;BME280;23309;52.582;13.406;2022-07-23T01:07:35;101200.25;;;27.09;39.14
37450;BME280;23309;52.582;13.406;2022-07-23T01:10:03;101190.81;;;27.05;39.06
37450;BME280;23309;52.582;13.406;2022-07-23T01:12:30;101187.63;;;27.08;39.16
37450;BME280;23309;52.582;13.406;2022-07-23T01:14:57;101192.56;;;27.00;39.26
37450;BME280;23309;52.582;13.406;2022-07-23T01:17:24;101192.19;;;26.96;39.55
37450;BME280;23309;52.582;13.406;2022-07-23T01:19:51;101195.38;;;26.93;39.50
37450;BME280;23309;52.582;13.406;2022-07-23T01:22:20;101171.28;;;26.84;39.35
37450;BME280;23309;52.582;13.406;2022-07-23T01:24:49;101169.22;;;26.79;39.41
37450;BME280;23309;52.582;13.406;2022-07-23T01:27:15;101180.56;;;26.83;39.53
37450;BME280;23309;52.582;13.406;2022-07-23T01:29:41;101167.78;;;26.77;39.35
37450;BME280;23309;52.582;13.406;2022-07-23T01:32:07;101139.78;;;26.57;39.35
37450;BME280;23309;52.582;13.406;2022-07-23T01:34:34;101164.53;;;26.68;39.33
37450;BME280;23309;52.582;13.406;2022-07-23T01:37:00;101163.53;;;26.63;40.02
37450;BME280;23309;52.582;13.406;2022-07-23T01:39:26;101167.78;;;26.59;39.54
37450;BME280;23309;52.582;13.406;2022-07-23T01:41:55;101170.94;;;26.56;39.91
37450;BME280;23309;52.582;13.406;2022-07-23T01:44:21;101164.88;;;26.54;39.68
37450;BME280;23309;52.582;13.406;2022-07-23T01:46:47;101159.69;;;26.46;40.06
37450;BME280;23309;52.582;13.406;2022-07-23T01:49:13;101165.16;;;26.46;40.34
37450;BME280;23309;52.582;13.406;2022-07-23T01:51:39;101163.50;;;26.45;39.89
37450;BME280;23309;52.582;13.406;2022-07-23T01:54:06;101161.44;;;26.40;40.15
37450;BME280;23309;52.582;13.406;2022-07-23T01:56:32;101167.38;;;26.37;40.55
37450;BME280;23309;52.582;13.406;2022-07-23T01:59:01;101159.81;;;26.33;40.16
37450;BME280;23309;52.582;13.406;2022-07-23T02:01:27;101165.78;;;26.30;40.41
37450;BME280;23309;52.582;13.406;2022-07-23T02:03:53;101156.94;;;26.28;40.17
37450;BME280;23309;52.582;13.406;2022-07-23T02:06:19;101162.25;;;26.23;40.29
37450;BME280;23309;52.582;13.406;2022-07-23T02:08:45;101152.44;;;26.15;40.65
37450;BME280;23309;52.582;13.406;2022-07-23T02:11:11;101163.09;;;26.23;40.94
37450;BME280;23309;52.582;13.406;2022-07-23T02:13:37;101159.31;;;26.24;40.92
37450;BME280;23309;52.582;13.406;2022-07-23T02:16:07;101157.84;;;26.22;40.95
37450;BME280;23309;52.582;13.406;2022-07-23T02:18:33;101143.44;;;26.08;40.66
37450;BME280;23309;52.582;13.406;2022-07-23T02:20:59;101154.19;;;26.10;40.93
37450;BME280;23309;52.582;13.406;2022-07-23T02:23:25;101163.47;;;26.09;41.09
37450;BME280;23309;52.582;13.406;2022-07-23T02:25:51;101152.50;;;26.09;41.09
37450;BME280;23309;52.582;13.406;2022-07-23T02:28:17;101152.28;;;26.10;41.04
37450;BME280;23309;52.582;13.406;2022-07-23T02:30:43;101160.50;;;26.10;41.20
37450;BME280;23309;52.582;13.406;2022-07-23T02:33:12;101154.19;;;26.10;40.76
37450;BME280;23309;52.582;13.406;2022-07-23T02:35:38;101164.69;;;26.13;41.29
37450;BME280;23309;52.582;13.406;2022-07-23T02:38:04;101158.59;;;26.11;40.80
37450;BME280;23309;52.582;13.406;2022-07-23T02:40:31;101141.28;;;25.92;41.03
37450;BME280;23309;52.582;13.406;2022-07-23T02:42:57;101145.91;;;25.92;41.10
37450;BME280;23309;52.582;13.406;2022-07-23T02:45:23;101156.47;;;25.88;41.81
37450;BME280;23309;52.582;13.406;2022-07-23T02:47:50;101155.41;;;25.89;41.07
37450;BME280;23309;52.582;13.406;2022-07-23T02:50:18;101158.56;;;25.86;41.19
37450;BME280;23309;52.582;13.406;2022-07-23T02:52:45;101173.31;;;25.85;40.99
37450;BME280;23309;52.582;13.406;2022-07-23T02:55:11;101171.13;;;25.76;41.39
37450;BME280;23309;52.582;13.406;2022-07-23T02:57:37;101174.06;;;25.74;41.31
37450;BME280;23309;52.582;13.406;2022-07-23T03:00:06;101178.31;;;25.70;41.43
37450;BME280;23309;52.582;13.406;2022-07-23T03:02:32;101180.88;;;25.65;41.41
37450;BME280;23309;52.582;13.406;2022-07-23T03:04:59;101173.31;;;25.60;41.73
37450;BME280;23309;52.582;13.406;2022-07-23T03:07:27;101176.06;;;25.60;41.83
37450;BME280;23309;52.582;13.406;2022-07-23T03:09:53;101168.91;;;25.59;41.85
37450;BME280;23309;52.582;13.406;2022-07-23T03:12:20;101168.69;;;25.61;41.59
37450;BME280;23309;52.582;13.406;2022-07-23T03:14:46;101172.94;;;25.57;41.38
37450;BME280;23309;52.582;13.406;2022-07-23T03:17:12;101167.69;;;25.55;41.49
37450;BME280;23309;52.582;13.406;2022-07-23T03:19:38;101170.59;;;25.60;41.84
37450;BME280;23309;52.582;13.406;2022-07-23T03:22:04;101169.81;;;25.53;41.99
37450;BME280;23309;52.582;13.406;2022-07-23T03:24:33;101160.59;;;25.48;41.98
37450;BME280;23309;52.582;13.406;2022-07-23T03:26:59;101175.06;;;25.55;41.98
37450;BME280;23309;52.582;13.406;2022-07-23T03:29:25;101176.78;;;25.49;41.78
37450;BME280;23309;52.582;13.406;2022-07-23T03:31:52;101174.09;;;25.43;41.82
37450;BME280;23309;52.582;13.406;2022-07-23T03:34:18;101169.88;;;25.47;41.48
37450;BME280;23309;52.582;13.406;2022-07-23T03:36:44;101175.97;;;25.42;41.79
37450;BME280;23309;52.582;13.406;2022-07-23T03:39:10;101172.66;;;25.40;41.22
37450;BME280;23309;52.582;13.406;2022-07-23T03:41:39;101183.59;;;25.40;41.63
37450;BME280;23309;52.582;13.406;2022-07-23T03:44:05;101188.41;;;25.38;41.35
37450;BME280;23309;52.582;13.406;2022-07-23T03:46:31;101198.94;;;25.41;41.54
37450;BME280;23309;52.582;13.406;2022-07-23T03:48:57;101199.53;;;25.43;41.19
37450;BME280;23309;52.582;13.406;2022-07-23T03:51:23;101203.56;;;25.41;41.10
37450;BME280;23309;52.582;13.406;2022-07-23T03:53:49;101188.00;;;25.41;41.09
37450;BME280;23309;52.582;13.406;2022-07-23T03:56:16;101198.88;;;25.48;40.60
37450;BME280;23309;52.582;13.406;2022-07-23T03:58:44;101188.59;;;25.43;40.28
37450;BME280;23309;52.582;13.406;2022-07-23T04:01:11;101196.03;;;25.36;40.50
37450;BME280;23309;52.582;13.406;2022-07-23T04:03:37;101192.66;;;25.34;40.44
37450;BME280;23309;52.582;13.406;2022-07-23T04:06:04;101216.53;;;25.52;40.50
37450;BME280;23309;52.582;13.406;2022-07-23T04:08:30;101206.84;;;25.56;40.39
37450;BME280;23309;52.582;13.406;2022-07-23T04:10:57;101207.22;;;25.59;40.03
37450;BME280;23309;52.582;13.406;2022-07-23T04:13:23;101201.91;;;25.64;39.59
37450;BME280;23309;52.582;13.406;2022-07-23T04:15:52;101180.41;;;25.68;39.34
37450;BME280;23309;52.582;13.406;2022-07-23T04:18:18;101170.53;;;25.67;39.32
37450;BME280;23309;52.582;13.406;2022-07-23T04:20:45;101176.47;;;25.64;39.27
37450;BME280;23309;52.582;13.406;2022-07-23T04:23:11;101174.06;;;25.49;39.66
37450;BME280;23309;52.582;13.406;2022-07-23T04:25:37;101179.00;;;25.59;39.46
37450;BME280;23309;52.582;13.406;2022-07-23T04:28:04;101181.16;;;25.57;39.83
37450;BME280;23309;52.582;13.406;2022-07-23T04:30:30;101175.72;;;25.50;40.13
37450;BME280;23309;52.582;13.406;2022-07-23T04:32:59;101176.56;;;25.51;40.43
37450;BME280;23309;52.582;13.406;2022-07-23T04:35:25;101182.91;;;25.45;40.57
37450;BME280;23309;52.582;13.406;2022-07-23T04:37:51;101185.94;;;25.37;41.10
37450;BME280;23309;52.582;13.406;2022-07-23T04:40:18;101172.47;;;25.35;40.81
37450;BME280;23309;52.582;13.406;2022-07-23T04:42:44;101163.69;;;25.20;41.36
37450;BME280;23309;52.582;13.406;2022-07-23T04:45:10;101200.91;;;24.84;42.61
37450;BME280;23309;52.582;13.406;2022-07-23T04:47:36;101220.94;;;24.45;43.75
37450;BME280;23309;52.582;13.406;2022-07-23T04:50:06;101230.44;;;24.17;44.48
37450;BME280;23309;52.582;13.406;2022-07-23T04:52:32;101221.84;;;24.00;45.46
37450;BME280;23309;52.582;13.406;2022-07-23T04:54:59;101207.97;;;23.89;46.27
37450;BME280;23309;52.582;13.406;2022-07-23T04:57:25;101212.97;;;23.85;46.83
37450;BME280;23309;52.582;13.406;2022-07-23T04:59:51;101222.88;;;23.80;46.96
37450;BME280;23309;52.582;13.406;2022-07-23T05:02:17;101232.50;;;23.76;46.86
37450;BME280;23309;52.582;13.406;2022-07-23T05:04:43;101236.06;;;23.70;47.05
37450;BME280;23309;52.582;13.406;2022-07-23T05:07:12;101233.75;;;23.67;47.63
37450;BME280;23309;52.582;13.406;2022-07-23T05:09:38;101233.75;;;23.67;47.49
37450;BME280;23309;52.582;13.406;2022-07-23T05:12:05;101223.66;;;23.61;46.82
37450;BME280;23309;52.582;13.406;2022-07-23T05:14:31;101198.47;;;23.46;47.63
37450;BME280;23309;52.582;13.406;2022-07-23T05:16:57;101189.66;;;23.37;48.16
37450;BME280;23309;52.582;13.406;2022-07-23T05:19:23;101192.59;;;23.36;48.21
37450;BME280;23309;52.582;13.406;2022-07-23T05:21:50;101202.22;;;23.32;48.55
37450;BME280;23309;52.582;13.406;2022-07-23T05:24:18;101195.50;;;23.28;48.46
37450;BME280;23309;52.582;13.406;2022-07-23T05:26:45;101198.84;;;23.30;48.41
37450;BME280;23309;52.582;13.406;2022-07-23T05:29:11;101192.41;;;23.37;48.73
37450;BME280;23309;52.582;13.406;2022-07-23T05:31:37;101194.06;;;23.38;48.49
37450;BME280;23309;52.582;13.406;2022-07-23T05:34:04;101193.00;;;23.39;49.08
37450;BME280;23309;52.582;13.406;2022-07-23T05:36:31;101193.03;;;23.46;48.61
37450;BME280;23309;52.582;13.406;2022-07-23T05:38:57;101189.69;;;23.44;48.98
37450;BME280;23309;52.582;13.406;2022-07-23T05:41:26;101194.91;;;23.52;48.91
37450;BME280;23309;52.582;13.406;2022-07-23T05:43:52;101204.34;;;23.49;48.29
37450;BME280;23309;52.582;13.406;2022-07-23T05:46:18;101204.16;;;23.51;48.47
37450;BME280;23309;52.582;13.406;2022-07-23T05:48:45;101202.47;;;23.56;48.54
37450;BME280;23309;52.582;13.406;2022-07-23T05:51:11;101202.09;;;23.59;48.42
37450;BME280;23309;52.582;13.406;2022-07-23T05:53:37;101202.28;;;23.58;48.57
37450;BME280;23309;52.582;13.406;2022-07-23T05:56:03;101200.59;;;23.63;49.08
37450;BME280;23309;52.582;13.406;2022-07-23T05:58:32;101216.53;;;23.66;48.40
37450;BME280;23309;52.582;13.406;2022-07-23T06:00:58;101227.66;;;23.71;49.09
37450;BME280;23309;52.582;13.406;2022-07-23T06:03:25;101231.25;;;23.65;48.95
37450;BME280;23309;52.582;13.406;2022-07-23T06:05:51;101241.31;;;23.71;48.56
37450;BME280;23309;52.582;13.406;2022-07-23T06:08:17;101239.84;;;23.75;48.82
37450;BME280;23309;52.582;13.406;2022-07-23T06:10:43;101254.75;;;23.73;48.39
37450;BME280;23309;52.582;13.406;2022-07-23T06:13:09;101241.09;;;23.73;48.64
37450;BME280;23309;52.582;13.406;2022-07-23T06:15:38;101238.38;;;23.79;48.97
37450;BME280;23309;52.582;13.406;2022-07-23T06:18:04;101210.69;;;23.82;49.43
37450;BME280;23309;52.582;13.406;2022-07-23T06:20:30;101198.06;;;23.88;49.72
37450;BME280;23309;52.582;13.406;2022-07-23T06:22:57;101196.44;;;23.93;49.82
37450;BME280;23309;52.582;13.406;2022-07-23T06:25:23;101193.50;;;23.95;49.47
37450;BME280;23309;52.582;13.406;2022-07-23T06:27:50;101203.38;;;23.96;49.27
37450;BME280;23309;52.582;13.406;2022-07-23T06:30:16;101208.63;;;23.91;49.10
37450;BME280;23309;52.582;13.406;2022-07-23T06:32:45;101208.41;;;23.92;49.50
37450;BME280;23309;52.582;13.406;2022-07-23T06:35:11;101196.00;;;23.83;49.55
37450;BME280;23309;52.582;13.406;2022-07-23T06:37:41;101205.47;;;23.94;48.43
37450;BME280;23309;52.582;13.406;2022-07-23T06:40:08;101195.38;;;23.94;48.82
37450;BME280;23309;52.582;13.406;2022-07-23T06:42:35;101196.66;;;23.98;48.78
37450;BME280;23309;52.582;13.406;2022-07-23T06:45:01;101199.81;;;23.95;48.47
37450;BME280;23309;52.582;13.406;2022-07-23T06:47:27;101189.91;;;23.94;49.56
37450;BME280;23309;52.582;13.406;2022-07-23T06:49:56;101193.91;;;23.98;48.80
37450;BME280;23309;52.582;13.406;2022-07-23T06:52:22;101197.28;;;24.07;49.38
37450;BME280;23309;52.582;13.406;2022-07-23T06:54:48;101176.69;;;24.11;49.64
37450;BME280;23309;52.582;13.406;2022-07-23T06:57:14;101172.47;;;24.21;49.77
37450;BME280;23309;52.582;13.406;2022-07-23T06:59:41;101175.38;;;24.26;49.40
37450;BME280;23309;52.582;13.406;2022-07-23T07:02:07;101187.78;;;24.29;49.37
37450;BME280;23309;52.582;13.406;2022-07-23T07:04:34;101165.13;;;24.22;49.34
37450;BME280;23309;52.582;13.406;2022-07-23T07:07:03;101181.28;;;24.30;49.22
37450;BME280;23309;52.582;13.406;2022-07-23T07:09:29;101159.03;;;24.20;48.84
37450;BME280;23309;52.582;13.406;2022-07-23T07:11:55;101169.72;;;24.28;48.75
37450;BME280;23309;52.582;13.406;2022-07-23T07:14:22;101173.69;;;24.32;48.59
37450;BME280;23309;52.582;13.406;2022-07-23T07:16:48;101205.84;;;24.36;48.73
37450;BME280;23309;52.582;13.406;2022-07-23T07:19:14;101215.31;;;24.34;48.26
37450;BME280;23309;52.582;13.406;2022-07-23T07:21:41;101225.16;;;24.35;49.47
37450;BME280;23309;52.582;13.406;2022-07-23T07:24:09;101231.44;;;24.42;48.62
37450;BME280;23309;52.582;13.406;2022-07-23T07:26:36;101241.53;;;24.48;49.32
37450;BME280;23309;52.582;13.406;2022-07-23T07:29:02;101239.63;;;24.55;49.51
37450;BME280;23309;52.582;13.406;2022-07-23T07:31:28;101249.75;;;24.61;49.03
37450;BME280;23309;52.582;13.406;2022-07-23T07:33:54;101246.16;;;24.60;48.42
37450;BME280;23309;52.582;13.406;2022-07-23T07:36:21;101235.22;;;24.67;48.29
37450;BME280;23309;52.582;13.406;2022-07-23T07:38:47;101241.50;;;24.74;48.83
37450;BME280;23309;52.582;13.406;2022-07-23T07:41:16;101237.47;;;24.83;48.54
37450;BME280;23309;52.582;13.406;2022-07-23T07:43:42;101229.84;;;24.98;48.84
37450;BME280;23309;52.582;13.406;2022-07-23T07:46:08;101230.41;;;25.13;48.88
37450;BME280;23309;52.582;13.406;2022-07-23T07:48:34;101232.69;;;25.29;48.64
37450;BME280;23309;52.582;13.406;2022-07-23T07:51:01;101222.25;;;25.44;49.05
37450;BME280;23309;52.582;13.406;2022-07-23T07:53:27;101215.00;;;25.63;48.06
37450;BME280;23309;52.582;13.406;2022-07-23T07:55:53;101210.97;;;25.65;46.83
37450;BME280;23309;52.582;13.406;2022-07-23T07:58:22;101206.31;;;25.65;45.70
37450;BME280;23309;52.582;13.406;2022-07-23T08:00:48;101205.66;;;25.70;45.73
37450;BME280;23309;52.582;13.406;2022-07-23T08:03:14;101189.59;;;25.80;46.05
37450;BME280;23309;52.582;13.406;2022-07-23T08:05:40;101196.00;;;25.99;45.82
37450;BME280;23309;52.582;13.406;2022-07-23T08:08:06;101199.53;;;26.24;46.75
37450;BME280;23309;52.582;13.406;2022-07-23T08:10:33;101200.63;;;26.41;45.16
37450;BME280;23309;52.582;13.406;2022-07-23T08:12:59;101213.00;;;26.68;46.21
37450;BME280;23309;52.582;13.406;2022-07-23T08:15:29;101200.97;;;26.87;44.61
37450;BME280;23309;52.582;13.406;2022-07-23T08:17:56;101203.31;;;27.19;44.61
37450;BME280;23309;52.582;13.406;2022-07-23T08:20:23;101195.44;;;27.64;42.42
37450;BME280;23309;52.582;13.406;2022-07-23T08:22:52;101196.16;;;28.00;41.75
37450;BME280;23309;52.582;13.406;2022-07-23T08:25:22;101199.03;;;28.51;41.63
37450;BME280;23309;52.582;13.406;2022-07-23T08:27:49;101202.91;;;28.90;37.94
37450;BME280;23309;52.582;13.406;2022-07-23T08:30:16;101199.31;;;28.89;36.04
37450;BME280;23309;52.582;13.406;2022-07-23T08:32:57;101199.56;;;29.27;36.03
37450;BME280;23309;52.582;13.406;2022-07-23T08:35:25;101203.28;;;29.49;35.58
37450;BME280;23309;52.582;13.406;2022-07-23T08:37:52;101204.09;;;29.78;35.09
37450;BME280;23309;52.582;13.406;2022-07-23T08:40:18;101198.78;;;30.04;37.07
37450;BME280;23309;52.582;13.406;2022-07-23T08:42:48;101197.16;;;30.41;35.15
37450;BME280;23309;52.582;13.406;2022-07-23T08:45:17;101201.03;;;30.62;35.46
37450;BME280;23309;52.582;13.406;2022-07-23T08:47:44;101195.09;;;30.91;34.82
37450;BME280;23309;52.582;13.406;2022-07-23T08:50:14;101197.28;;;31.11;34.50
37450;BME280;23309;52.582;13.406;2022-07-23T08:52:40;101198.38;;;31.31;32.89
37450;BME280;23309;52.582;13.406;2022-07-23T08:55:08;101199.41;;;31.52;34.77
37450;BME280;23309;52.582;13.406;2022-07-23T08:57:34;101209.22;;;31.69;31.97
37450;BME280;23309;52.582;13.406;2022-07-23T09:00:00;101189.09;;;31.69;32.41
37450;BME280;23309;52.582;13.406;2022-07-23T09:02:27;101185.72;;;31.67;31.71
37450;BME280;23309;52.582;13.406;2022-07-23T09:04:53;101187.97;;;31.70;32.27
37450;BME280;23309;52.582;13.406;2022-07-23T09:07:22;101177.88;;;31.80;32.49
37450;BME280;23309;52.582;13.406;2022-07-23T09:10:07;101180.34;;;32.13;31.71
37450;BME280;23309;52.582;13.406;2022-07-23T09:12:34;101188.44;;;32.25;31.76
37450;BME280;23309;52.582;13.406;2022-07-23T09:15:06;101195.22;;;32.44;30.91
37450;BME280;23309;52.582;13.406;2022-07-23T09:17:38;101187.78;;;32.50;31.37
37450;BME280;23309;52.582;13.406;2022-07-23T09:20:11;101211.34;;;33.09;31.52
37450;BME280;23309;52.582;13.406;2022-07-23T09:22:41;101212.19;;;33.14;29.83
37450;BME280;23309;52.582;13.406;2022-07-23T09:25:12;101212.00;;;33.31;31.10
37450;BME280;23309;52.582;13.406;2022-07-23T09:27:54;101211.47;;;33.39;29.61
37450;BME280;23309;52.582;13.406;2022-07-23T09:30:22;101213.13;;;33.40;29.07
37450;BME280;23309;52.582;13.406;2022-07-23T09:33:08;101209.28;;;33.61;28.96
37450;BME280;23309;52.582;13.406;2022-07-23T09:35:49;101221.75;;;33.53;29.38
37450;BME280;23309;52.582;13.406;2022-07-23T09:38:21;101228.16;;;33.79;28.26
37450;BME280;23309;52.582;13.406;2022-07-23T09:41:06;101227.91;;;33.80;28.62
37450;BME280;23309;52.582;13.406;2022-07-23T09:43:33;101223.69;;;33.68;28.01
37450;BME280;23309;52.582;13.406;2022-07-23T09:46:19;101234.28;;;34.01;28.70
37450;BME280;23309;52.582;13.406;2022-07-23T09:48:45;101234.00;;;33.92;27.33
37450;BME280;23309;52.582;13.406;2022-07-23T09:51:11;101239.00;;;33.95;27.17
37450;BME280;23309;52.582;13.406;2022-07-23T09:53:40;101228.75;;;34.11;27.83
37450;BME280;23309;52.582;13.406;2022-07-23T09:56:07;101231.50;;;34.21;27.11
37450;BME280;23309;52.582;13.406;2022-07-23T09:58:36;101218.19;;;34.18;26.95
37450;BME280;23309;52.582;13.406;2022-07-23T10:01:05;101223.19;;;34.41;26.69
37450;BME280;23309;52.582;13.406;2022-07-23T10:03:31;101221.47;;;34.60;27.05
37450;BME280;23309;52.582;13.406;2022-07-23T10:05:58;101230.34;;;34.62;26.75
37450;BME280;23309;52.582;13.406;2022-07-23T10:08:24;101238.16;;;34.50;26.45
37450;BME280;23309;52.582;13.406;2022-07-23T10:10:54;101239.25;;;34.59;27.06
37450;BME280;23309;52.582;13.406;2022-07-23T10:13:21;101231.41;;;34.76;26.38
37450;BME280;23309;52.582;13.406;2022-07-23T10:15:47;101247.53;;;34.84;25.81
37450;BME280;23309;52.582;13.406;2022-07-23T10:18:14;101246.41;;;34.85;25.78
37450;BME280;23309;52.582;13.406;2022-07-23T10:20:41;101250.88;;;34.61;26.04
37450;BME280;23309;52.582;13.406;2022-07-23T10:23:14;101248.16;;;34.41;26.04
37450;BME280;23309;52.582;13.406;2022-07-23T10:25:46;101234.00;;;34.12;25.92
37450;BME280;23309;52.582;13.406;2022-07-23T10:28:40;101238.44;;;34.13;26.98
37450;BME280;23309;52.582;13.406;2022-07-23T10:31:16;101241.78;;;34.25;27.12
37450;BME280;23309;52.582;13.406;2022-07-23T10:34:14;101239.84;;;34.31;26.26
37450;BME280;23309;52.582;13.406;2022-07-23T10:36:49;101237.88;;;34.26;26.50
37450;BME280;23309;52.582;13.406;2022-07-23T10:39:24;101239.56;;;34.12;26.37
37450;BME280;23309;52.582;13.406;2022-07-23T10:41:51;101241.78;;;33.90;26.63
37450;BME280;23309;52.582;13.406;2022-07-23T10:44:21;101246.19;;;33.81;27.03
37450;BME280;23309;52.582;13.406;2022-07-23T10:46:59;101247.31;;;33.95;27.27
37450;BME280;23309;52.582;13.406;2022-07-23T10:49:27;101239.81;;;33.86;26.48
37450;BME280;23309;52.582;13.406;2022-07-23T10:52:17;101235.38;;;33.85;26.21
37450;BME280;23309;52.582;13.406;2022-07-23T10:54:45;101242.28;;;33.77;26.41
37450;BME280;23309;52.582;13.406;2022-07-23T10:57:13;101242.00;;;33.79;26.56
37450;BME280;23309;52.582;13.406;2022-07-23T11:00:16;101242.88;;;33.99;27.48
37450;BME280;23309;52.582;13.406;2022-07-23T11:02:47;101240.41;;;34.33;26.80
37450;BME280;23309;52.582;13.406;2022-07-23T11:05:15;101241.72;;;34.65;26.45
37450;BME280;23309;52.582;13.406;2022-07-23T11:08:16;101241.38;;;34.97;24.85
37450;BME280;23309;52.582;13.406;2022-07-23T11:10:46;101246.41;;;34.85;25.47
37450;BME280;23309;52.582;13.406;2022-07-23T11:13:45;101236.88;;;35.06;24.77
37450;BME280;23309;52.582;13.406;2022-07-23T11:16:24;101238.88;;;34.90;25.38
37450;BME280;23309;52.582;13.406;2022-07-23T11:19:05;101232.91;;;35.32;25.73
37450;BME280;23309;52.582;13.406;2022-07-23T11:21:51;101223.53;;;35.61;25.14
37450;BME280;23309;52.582;13.406;2022-07-23T11:24:23;101222.22;;;35.92;23.67
37450;BME280;23309;52.582;13.406;2022-07-23T11:27:01;101230.91;;;35.86;23.74
37450;BME280;23309;52.582;13.406;2022-07-23T11:29:47;101218.38;;;35.45;23.86
37450;BME280;23309;52.582;13.406;2022-07-23T11:32:39;101226.22;;;35.33;25.61
37450;BME280;23309;52.582;13.406;2022-07-23T11:35:26;101209.44;;;35.53;24.61
37450;BME280;23309;52.582;13.406;2022-07-23T11:37:54;101220.19;;;35.64;25.07
37450;BME280;23309;52.582;13.406;2022-07-23T11:40:21;101219.53;;;35.77;24.88
37450;BME280;23309;52.582;13.406;2022-07-23T11:42:54;101225.09;;;35.77;25.08
37450;BME280;23309;52.582;13.406;2022-07-23T11:45:22;101225.19;;;35.62;24.56
37450;BME280;23309;52.582;13.406;2022-07-23T11:47:51;101228.69;;;35.39;24.87
37450;BME280;23309;52.582;13.406;2022-07-23T11:50:17;101216.56;;;35.15;24.64
37450;BME280;23309;52.582;13.406;2022-07-23T11:52:43;101229.13;;;34.98;25.02
37450;BME280;23309;52.582;13.406;2022-07-23T11:55:11;101222.16;;;35.05;25.52
37450;BME280;23309;52.582;13.406;2022-07-23T11:57:39;101223.56;;;35.08;24.60
37450;BME280;23309;52.582;13.406;2022-07-23T12:00:10;101224.16;;;35.00;25.78
37450;BME280;23309;52.582;13.406;2022-07-23T12:02:37;101217.78;;;34.94;25.41
37450;BME280;23309;52.582;13.406;2022-07-23T12:05:07;101213.81;;;35.05;23.80
37450;BME280;23309;52.582;13.406;2022-07-23T12:07:36;101201.38;;;34.98;24.85
37450;BME280;23309;52.582;13.406;2022-07-23T12:10:10;101202.78;;;34.95;24.88
37450;BME280;23309;52.582;13.406;2022-07-23T12:12:38;101210.25;;;35.00;24.33
37450;BME280;23309;52.582;13.406;2022-07-23T12:15:07;101210.53;;;34.98;24.57
37450;BME280;23309;52.582;13.406;2022-07-23T12:17:36;101211.03;;;35.05;24.68
37450;BME280;23309;52.582;13.406;2022-07-23T12:20:10;101208.94;;;35.41;23.99
37450;BME280;23309;52.582;13.406;2022-07-23T12:22:40;101208.56;;;35.57;23.96
37450;BME280;23309;52.582;13.406;2022-07-23T12:25:09;101204.09;;;36.00;23.05
37450;BME280;23309;52.582;13.406;2022-07-23T12:27:36;101201.22;;;36.38;22.96
37450;BME280;23309;52.582;13.406;2022-07-23T12:30:20;101216.25;;;36.66;23.28
37450;BME280;23309;52.582;13.406;2022-07-23T12:32:49;101213.66;;;36.74;22.23
37450;BME280;23309;52.582;13.406;2022-07-23T12:35:19;101207.84;;;36.71;22.45
37450;BME280;23309;52.582;13.406;2022-07-23T12:37:49;101204.78;;;36.44;22.07
37450;BME280;23309;52.582;13.406;2022-07-23T12:40:28;101208.03;;;36.27;23.40
37450;BME280;23309;52.582;13.406;2022-07-23T12:42:57;101206.63;;;36.30;22.77
37450;BME280;23309;52.582;13.406;2022-07-23T12:45:24;101201.66;;;36.50;23.04
37450;BME280;23309;52.582;13.406;2022-07-23T12:48:02;101215.72;;;36.87;22.11